sensor_id;sensor_type;location;lat;lon;timestamp;temperature;humidity
3626;DHT22;1827;50.534;8.316;2023-02-03T00:02:04;6.60;99.90
3626;DHT22;1827;50.534;8.316;2023-02-03T00:04:31;6.60;99.90
3626;DHT22;1827;50.534;8.316;2023-02-03T00:07:01;6.60;99.90
3626;DHT22;1827;50.534;8.316;2023-02-03T00:09:29;6.60;99.90
3626;DHT22;1827;50.534;8.316;2023-02-03T00:11:55;6.60;99.90
3626;DHT22;1827;50.534;8.316;2023-02-03T00:14:22;6.60;99.90
3626;DHT22;1827;50.534;8.316;2023-02-03T00:16:47;6.60;99.90
3626;DHT22;1827;50.534;8.316;2023-02-03T00:19:13;6.60;99.90
3626;DHT22;1827;50.534;8.316;2023-02-03T00:21:40;6.50;99.90
3626;DHT22;1827;50.534;8.316;2023-02-03T00:24:08;6.60;99.90
3626;DHT22;1827;50.534;8.316;2023-02-03T00:26:40;6.50;99.90
3626;DHT22;1827;50.534;8.316;2023-02-03T00:29:08;6.60;99.90
3626;DHT22;1827;50.534;8.316;2023-02-03T00:31:35;6.60;99.90
3626;DHT22;1827;50.534;8.316;2023-02-03T00:34:01;6.60;99.90
3626;DHT22;1827;50.534;8.316;2023-02-03T00:36:27;6.50;99.90
3626;DHT22;1827;50.534;8.316;2023-02-03T00:38:53;6.50;99.90
3626;DHT22;1827;50.534;8.316;2023-02-03T00:41:19;6.50;1.00
3626;DHT22;1827;50.534;8.316;2023-02-03T00:43:46;6.40;1.00
3626;DHT22;1827;50.534;8.316;2023-02-03T00:46:12;6.40;1.00
3626;DHT22;1827;50.534;8.316;2023-02-03T00:48:38;6.40;1.00
3626;DHT22;1827;50.534;8.316;2023-02-03T00:51:04;6.40;1.00
3626;DHT22;1827;50.534;8.316;2023-02-03T00:53:30;6.40;1.00
3626;DHT22;1827;50.534;8.316;2023-02-03T00:55:56;6.40;1.00
3626;DHT22;1827;50.534;8.316;2023-02-03T00:58:22;6.40;1.00
3626;DHT22;1827;50.534;8.316;2023-02-03T01:00:47;6.40;1.00
3626;DHT22;1827;50.534;8.316;2023-02-03T01:03:13;6.40;1.00
3626;DHT22;1827;50.534;8.316;2023-02-03T01:05:39;6.50;1.00
3626;DHT22;1827;50.534;8.316;2023-02-03T01:08:04;6.40;1.00
3626;DHT22;1827;50.534;8.316;2023-02-03T01:10:30;6.50;1.00
3626;DHT22;1827;50.534;8.316;2023-02-03T01:12:56;6.50;1.00
3626;DHT22;1827;50.534;8.316;2023-02-03T01:15:22;6.50;1.00
3626;DHT22;1827;50.534;8.316;2023-02-03T01:17:47;6.50;1.00
3626;DHT22;1827;50.534;8.316;2023-02-03T01:20:13;6.60;1.00
3626;DHT22;1827;50.534;8.316;2023-02-03T01:22:40;6.60;1.00
3626;DHT22;1827;50.534;8.316;2023-02-03T01:25:07;6.60;1.00
3626;DHT22;1827;50.534;8.316;2023-02-03T01:27:33;6.60;1.00
3626;DHT22;1827;50.534;8.316;2023-02-03T01:29:59;6.60;1.00
3626;DHT22;1827;50.534;8.316;2023-02-03T01:32:26;6.70;1.00
3626;DHT22;1827;50.534;8.316;2023-02-03T01:34:51;6.70;1.00
3626;DHT22;1827;50.534;8.316;2023-02-03T01:37:17;6.70;1.00
3626;DHT22;1827;50.534;8.316;2023-02-03T01:39:43;6.60;1.00
3626;DHT22;1827;50.534;8.316;2023-02-03T01:42:14;6.60;1.00
3626;DHT22;1827;50.534;8.316;2023-02-03T01:47:59;6.60;1.00
3626;DHT22;1827;50.534;8.316;2023-02-03T01:50:21;6.60;1.00
3626;DHT22;1827;50.534;8.316;2023-02-03T01:52:56;6.60;1.00
3626;DHT22;1827;50.534;8.316;2023-02-03T01:55:27;6.70;1.00
3626;DHT22;1827;50.534;8.316;2023-02-03T01:57:59;6.70;1.00
3626;DHT22;1827;50.534;8.316;2023-02-03T02:00:26;6.60;1.00
3626;DHT22;1827;50.534;8.316;2023-02-03T02:02:54;6.60;1.00
3626;DHT22;1827;50.534;8.316;2023-02-03T02:05:35;6.60;1.00
3626;DHT22;1827;50.534;8.316;2023-02-03T02:08:04;6.70;1.00
3626;DHT22;1827;50.534;8.316;2023-02-03T02:10:31;6.70;1.00
3626;DHT22;1827;50.534;8.316;2023-02-03T02:12:58;6.60;1.00
3626;DHT22;1827;50.534;8.316;2023-02-03T02:15:52;6.60;1.00
3626;DHT22;1827;50.534;8.316;2023-02-03T02:18:22;6.60;1.00
3626;DHT22;1827;50.534;8.316;2023-02-03T02:24:06;6.60;1.00
3626;DHT22;1827;50.534;8.316;2023-02-03T02:26:49;6.70;1.00
3626;DHT22;1827;50.534;8.316;2023-02-03T02:32:27;6.70;1.00
3626;DHT22;1827;50.534;8.316;2023-02-03T02:35:11;6.80;1.00
3626;DHT22;1827;50.534;8.316;2023-02-03T02:37:51;6.80;1.00
3626;DHT22;1827;50.534;8.316;2023-02-03T02:43:05;6.80;1.00
3626;DHT22;1827;50.534;8.316;2023-02-03T02:45:51;6.80;1.00
3626;DHT22;1827;50.534;8.316;2023-02-03T02:48:39;6.90;1.00
3626;DHT22;1827;50.534;8.316;2023-02-03T02:51:08;6.80;1.00
3626;DHT22;1827;50.534;8.316;2023-02-03T02:53:41;6.80;99.90
3626;DHT22;1827;50.534;8.316;2023-02-03T02:56:09;6.90;99.90
3626;DHT22;1827;50.534;8.316;2023-02-03T02:58:39;6.90;99.90
3626;DHT22;1827;50.534;8.316;2023-02-03T03:01:08;6.80;99.90
3626;DHT22;1827;50.534;8.316;2023-02-03T03:03:36;6.80;99.90
3626;DHT22;1827;50.534;8.316;2023-02-03T03:06:09;6.80;99.90
3626;DHT22;1827;50.534;8.316;2023-02-03T03:11:13;6.80;99.90
3626;DHT22;1827;50.534;8.316;2023-02-03T03:13:52;6.80;99.90
3626;DHT22;1827;50.534;8.316;2023-02-03T03:16:22;6.90;99.90
3626;DHT22;1827;50.534;8.316;2023-02-03T03:18:54;6.90;99.90
3626;DHT22;1827;50.534;8.316;2023-02-03T03:21:26;6.90;99.90
3626;DHT22;1827;50.534;8.316;2023-02-03T03:23:55;6.90;99.90
3626;DHT22;1827;50.534;8.316;2023-02-03T03:26:27;6.90;99.90
3626;DHT22;1827;50.534;8.316;2023-02-03T03:29:53;6.90;99.90
3626;DHT22;1827;50.534;8.316;2023-02-03T03:32:01;6.90;99.90
3626;DHT22;1827;50.534;8.316;2023-02-03T03:34:28;7.00;99.90
3626;DHT22;1827;50.534;8.316;2023-02-03T03:37:13;7.00;99.90
3626;DHT22;1827;50.534;8.316;2023-02-03T03:45:26;7.00;99.90
3626;DHT22;1827;50.534;8.316;2023-02-03T03:48:03;7.00;99.90
3626;DHT22;1827;50.534;8.316;2023-02-03T03:50:38;6.90;99.90
3626;DHT22;1827;50.534;8.316;2023-02-03T03:53:06;7.00;99.90
3626;DHT22;1827;50.534;8.316;2023-02-03T03:55:35;7.00;99.90
3626;DHT22;1827;50.534;8.316;2023-02-03T03:58:06;7.00;99.90
3626;DHT22;1827;50.534;8.316;2023-02-03T04:00:36;7.10;99.90
3626;DHT22;1827;50.534;8.316;2023-02-03T04:03:22;7.10;99.90
3626;DHT22;1827;50.534;8.316;2023-02-03T04:05:48;7.10;99.90
3626;DHT22;1827;50.534;8.316;2023-02-03T04:08:14;7.10;91.00
3626;DHT22;1827;50.534;8.316;2023-02-03T04:10:41;7.00;90.30
3626;DHT22;1827;50.534;8.316;2023-02-03T04:13:09;7.00;75.30
3626;DHT22;1827;50.534;8.316;2023-02-03T04:15:35;7.10;68.00
3626;DHT22;1827;50.534;8.316;2023-02-03T04:18:01;7.10;46.60
3626;DHT22;1827;50.534;8.316;2023-02-03T04:20:28;7.10;24.40
3626;DHT22;1827;50.534;8.316;2023-02-03T04:22:54;7.10;8.70
3626;DHT22;1827;50.534;8.316;2023-02-03T04:25:21;7.10;1.00
3626;DHT22;1827;50.534;8.316;2023-02-03T04:27:46;7.10;1.00
3626;DHT22;1827;50.534;8.316;2023-02-03T04:30:13;7.10;1.00
3626;DHT22;1827;50.534;8.316;2023-02-03T04:32:39;7.10;1.00
3626;DHT22;1827;50.534;8.316;2023-02-03T04:35:05;7.10;1.00
3626;DHT22;1827;50.534;8.316;2023-02-03T04:37:31;7.10;1.00
3626;DHT22;1827;50.534;8.316;2023-02-03T04:39:57;7.10;1.00
3626;DHT22;1827;50.534;8.316;2023-02-03T04:42:24;7.10;1.00
3626;DHT22;1827;50.534;8.316;2023-02-03T04:44:50;7.30;1.00
3626;DHT22;1827;50.534;8.316;2023-02-03T04:47:18;7.20;1.00
3626;DHT22;1827;50.534;8.316;2023-02-03T04:49:44;7.20;1.00
3626;DHT22;1827;50.534;8.316;2023-02-03T04:52:10;7.20;1.00
3626;DHT22;1827;50.534;8.316;2023-02-03T04:54:36;7.20;1.00
3626;DHT22;1827;50.534;8.316;2023-02-03T04:57:04;7.20;1.00
3626;DHT22;1827;50.534;8.316;2023-02-03T04:59:30;7.20;1.00
3626;DHT22;1827;50.534;8.316;2023-02-03T05:01:56;7.20;1.00
3626;DHT22;1827;50.534;8.316;2023-02-03T05:04:23;7.20;1.00
3626;DHT22;1827;50.534;8.316;2023-02-03T05:06:49;7.20;1.00
3626;DHT22;1827;50.534;8.316;2023-02-03T05:09:15;7.30;1.00
3626;DHT22;1827;50.534;8.316;2023-02-03T05:11:41;7.30;1.00
3626;DHT22;1827;50.534;8.316;2023-02-03T05:14:07;7.20;1.00
3626;DHT22;1827;50.534;8.316;2023-02-03T05:16:33;7.20;1.00
3626;DHT22;1827;50.534;8.316;2023-02-03T05:18:59;7.20;1.00
3626;DHT22;1827;50.534;8.316;2023-02-03T05:21:24;7.20;1.00
3626;DHT22;1827;50.534;8.316;2023-02-03T05:23:50;7.10;1.00
3626;DHT22;1827;50.534;8.316;2023-02-03T05:26:16;7.10;1.00
3626;DHT22;1827;50.534;8.316;2023-02-03T05:28:41;7.20;1.00
3626;DHT22;1827;50.534;8.316;2023-02-03T05:31:07;7.20;1.00
3626;DHT22;1827;50.534;8.316;2023-02-03T05:33:34;7.20;1.00
3626;DHT22;1827;50.534;8.316;2023-02-03T05:36:00;7.20;1.00
3626;DHT22;1827;50.534;8.316;2023-02-03T05:38:26;7.10;1.00
3626;DHT22;1827;50.534;8.316;2023-02-03T05:40:52;7.10;1.00
3626;DHT22;1827;50.534;8.316;2023-02-03T05:43:36;7.10;1.00
3626;DHT22;1827;50.534;8.316;2023-02-03T05:46:03;7.10;1.00
3626;DHT22;1827;50.534;8.316;2023-02-03T05:48:29;7.00;1.00
3626;DHT22;1827;50.534;8.316;2023-02-03T05:50:55;7.00;1.00
3626;DHT22;1827;50.534;8.316;2023-02-03T05:53:21;7.10;1.00
3626;DHT22;1827;50.534;8.316;2023-02-03T05:55:47;7.10;1.00
3626;DHT22;1827;50.534;8.316;2023-02-03T05:58:13;7.20;1.00
3626;DHT22;1827;50.534;8.316;2023-02-03T06:00:39;7.10;1.00
3626;DHT22;1827;50.534;8.316;2023-02-03T06:03:04;7.10;1.00
3626;DHT22;1827;50.534;8.316;2023-02-03T06:05:32;7.10;1.00
3626;DHT22;1827;50.534;8.316;2023-02-03T06:07:58;7.20;1.00
3626;DHT22;1827;50.534;8.316;2023-02-03T06:10:24;7.20;1.00
3626;DHT22;1827;50.534;8.316;2023-02-03T06:12:50;7.10;1.00
3626;DHT22;1827;50.534;8.316;2023-02-03T06:15:16;7.20;1.00
3626;DHT22;1827;50.534;8.316;2023-02-03T06:17:43;7.20;1.00
3626;DHT22;1827;50.534;8.316;2023-02-03T06:20:10;7.30;1.00
3626;DHT22;1827;50.534;8.316;2023-02-03T06:22:36;7.30;1.00
3626;DHT22;1827;50.534;8.316;2023-02-03T06:25:03;7.30;1.00
3626;DHT22;1827;50.534;8.316;2023-02-03T06:27:30;7.30;1.00
3626;DHT22;1827;50.534;8.316;2023-02-03T06:29:56;7.30;1.00
3626;DHT22;1827;50.534;8.316;2023-02-03T06:32:21;7.30;1.00
3626;DHT22;1827;50.534;8.316;2023-02-03T06:34:47;7.30;1.00
3626;DHT22;1827;50.534;8.316;2023-02-03T06:37:13;7.30;1.00
3626;DHT22;1827;50.534;8.316;2023-02-03T06:39:39;7.30;1.00
3626;DHT22;1827;50.534;8.316;2023-02-03T06:42:05;7.30;1.00
3626;DHT22;1827;50.534;8.316;2023-02-03T06:44:31;7.30;1.00
3626;DHT22;1827;50.534;8.316;2023-02-03T06:46:57;7.30;1.00
3626;DHT22;1827;50.534;8.316;2023-02-03T06:49:23;7.30;1.00
3626;DHT22;1827;50.534;8.316;2023-02-03T06:51:49;7.30;1.00
3626;DHT22;1827;50.534;8.316;2023-02-03T06:54:17;7.40;1.00
3626;DHT22;1827;50.534;8.316;2023-02-03T06:56:43;7.30;1.00
3626;DHT22;1827;50.534;8.316;2023-02-03T06:59:09;7.40;1.00
3626;DHT22;1827;50.534;8.316;2023-02-03T07:01:36;7.40;1.00
3626;DHT22;1827;50.534;8.316;2023-02-03T07:04:02;7.50;1.00
3626;DHT22;1827;50.534;8.316;2023-02-03T07:06:28;7.40;1.00
3626;DHT22;1827;50.534;8.316;2023-02-03T07:08:57;7.40;1.00
3626;DHT22;1827;50.534;8.316;2023-02-03T07:11:24;7.40;1.00
3626;DHT22;1827;50.534;8.316;2023-02-03T07:13:50;7.50;1.00
3626;DHT22;1827;50.534;8.316;2023-02-03T07:16:16;7.50;1.00
3626;DHT22;1827;50.534;8.316;2023-02-03T07:18:43;7.50;1.00
3626;DHT22;1827;50.534;8.316;2023-02-03T07:21:13;7.50;1.00
3626;DHT22;1827;50.534;8.316;2023-02-03T07:23:39;7.50;1.00
3626;DHT22;1827;50.534;8.316;2023-02-03T07:26:06;7.50;1.00
3626;DHT22;1827;50.534;8.316;2023-02-03T07:28:34;7.50;1.00
3626;DHT22;1827;50.534;8.316;2023-02-03T07:31:00;7.50;1.00
3626;DHT22;1827;50.534;8.316;2023-02-03T07:33:27;7.50;1.00
3626;DHT22;1827;50.534;8.316;2023-02-03T07:35:57;7.50;1.00
3626;DHT22;1827;50.534;8.316;2023-02-03T07:38:25;7.50;1.00
3626;DHT22;1827;50.534;8.316;2023-02-03T07:40:52;7.60;1.00
3626;DHT22;1827;50.534;8.316;2023-02-03T07:43:18;7.60;1.00
3626;DHT22;1827;50.534;8.316;2023-02-03T07:45:45;7.50;1.00
3626;DHT22;1827;50.534;8.316;2023-02-03T07:48:11;7.60;1.00
3626;DHT22;1827;50.534;8.316;2023-02-03T07:50:38;7.60;1.00
3626;DHT22;1827;50.534;8.316;2023-02-03T07:53:04;7.60;1.00
3626;DHT22;1827;50.534;8.316;2023-02-03T07:55:33;7.50;1.00
3626;DHT22;1827;50.534;8.316;2023-02-03T07:57:59;7.60;1.00
3626;DHT22;1827;50.534;8.316;2023-02-03T08:00:27;7.70;1.00
3626;DHT22;1827;50.534;8.316;2023-02-03T08:02:52;7.60;1.00
3626;DHT22;1827;50.534;8.316;2023-02-03T08:05:19;7.60;1.00
3626;DHT22;1827;50.534;8.316;2023-02-03T08:07:45;7.70;1.00
3626;DHT22;1827;50.534;8.316;2023-02-03T08:10:14;7.80;1.00
3626;DHT22;1827;50.534;8.316;2023-02-03T08:12:40;7.80;1.00
3626;DHT22;1827;50.534;8.316;2023-02-03T08:15:08;7.80;1.00
3626;DHT22;1827;50.534;8.316;2023-02-03T08:17:34;7.80;1.00
3626;DHT22;1827;50.534;8.316;2023-02-03T08:20:00;7.80;1.00
3626;DHT22;1827;50.534;8.316;2023-02-03T08:22:26;7.80;1.00
3626;DHT22;1827;50.534;8.316;2023-02-03T08:24:51;7.80;1.00
3626;DHT22;1827;50.534;8.316;2023-02-03T08:27:20;7.80;1.00
3626;DHT22;1827;50.534;8.316;2023-02-03T08:29:46;7.80;1.00
3626;DHT22;1827;50.534;8.316;2023-02-03T08:32:18;7.90;1.00
3626;DHT22;1827;50.534;8.316;2023-02-03T08:34:48;7.90;1.00
3626;DHT22;1827;50.534;8.316;2023-02-03T08:37:20;8.00;1.00
3626;DHT22;1827;50.534;8.316;2023-02-03T08:39:53;8.00;1.00
3626;DHT22;1827;50.534;8.316;2023-02-03T08:42:19;8.00;1.00
3626;DHT22;1827;50.534;8.316;2023-02-03T08:44:45;8.00;1.00
3626;DHT22;1827;50.534;8.316;2023-02-03T08:47:23;8.10;1.00
3626;DHT22;1827;50.534;8.316;2023-02-03T08:49:55;8.10;1.00
3626;DHT22;1827;50.534;8.316;2023-02-03T08:52:21;8.20;1.00
3626;DHT22;1827;50.534;8.316;2023-02-03T08:54:47;8.20;1.00
3626;DHT22;1827;50.534;8.316;2023-02-03T08:57:26;8.30;1.00
3626;DHT22;1827;50.534;8.316;2023-02-03T09:00:35;8.30;1.00
3626;DHT22;1827;50.534;8.316;2023-02-03T09:03:04;8.30;1.00
3626;DHT22;1827;50.534;8.316;2023-02-03T09:06:05;8.30;1.00
3626;DHT22;1827;50.534;8.316;2023-02-03T09:08:31;8.30;1.00
3626;DHT22;1827;50.534;8.316;2023-02-03T09:14:31;8.30;1.00
3626;DHT22;1827;50.534;8.316;2023-02-03T09:16:59;8.40;1.00
3626;DHT22;1827;50.534;8.316;2023-02-03T09:22:58;8.50;1.00
3626;DHT22;1827;50.534;8.316;2023-02-03T09:25:24;8.60;1.00
3626;DHT22;1827;50.534;8.316;2023-02-03T09:27:50;8.60;1.00
3626;DHT22;1827;50.534;8.316;2023-02-03T09:30:16;8.60;1.00
3626;DHT22;1827;50.534;8.316;2023-02-03T09:32:42;8.60;1.00
3626;DHT22;1827;50.534;8.316;2023-02-03T09:38:09;8.60;1.00
3626;DHT22;1827;50.534;8.316;2023-02-03T09:40:36;8.60;1.00
3626;DHT22;1827;50.534;8.316;2023-02-03T09:43:15;8.60;1.00
3626;DHT22;1827;50.534;8.316;2023-02-03T09:45:44;8.60;1.00
3626;DHT22;1827;50.534;8.316;2023-02-03T09:48:17;8.60;1.00
3626;DHT22;1827;50.534;8.316;2023-02-03T09:50:44;8.70;1.00
3626;DHT22;1827;50.534;8.316;2023-02-03T09:53:31;8.60;1.00
3626;DHT22;1827;50.534;8.316;2023-02-03T09:55:58;8.60;1.00
3626;DHT22;1827;50.534;8.316;2023-02-03T09:58:26;8.60;1.00
3626;DHT22;1827;50.534;8.316;2023-02-03T10:00:56;8.50;1.00
3626;DHT22;1827;50.534;8.316;2023-02-03T10:09:00;8.50;1.00
3626;DHT22;1827;50.534;8.316;2023-02-03T10:19:50;8.30;1.00
3626;DHT22;1827;50.534;8.316;2023-02-03T10:22:20;8.30;1.00
3626;DHT22;1827;50.534;8.316;2023-02-03T10:24:55;8.20;1.00
3626;DHT22;1827;50.534;8.316;2023-02-03T10:27:23;8.20;1.00
3626;DHT22;1827;50.534;8.316;2023-02-03T10:30:09;8.20;1.00
3626;DHT22;1827;50.534;8.316;2023-02-03T10:32:40;8.10;1.00
3626;DHT22;1827;50.534;8.316;2023-02-03T10:35:11;8.00;1.00
3626;DHT22;1827;50.534;8.316;2023-02-03T10:37:49;8.10;1.00
3626;DHT22;1827;50.534;8.316;2023-02-03T10:40:16;8.00;1.00
3626;DHT22;1827;50.534;8.316;2023-02-03T10:42:47;7.90;1.00
3626;DHT22;1827;50.534;8.316;2023-02-03T10:45:36;7.90;1.00
3626;DHT22;1827;50.534;8.316;2023-02-03T10:48:03;7.80;1.00
3626;DHT22;1827;50.534;8.316;2023-02-03T10:50:31;7.80;1.00
3626;DHT22;1827;50.534;8.316;2023-02-03T10:53:23;7.80;1.00
3626;DHT22;1827;50.534;8.316;2023-02-03T10:58:27;7.80;1.00
3626;DHT22;1827;50.534;8.316;2023-02-03T11:01:11;7.80;1.00
3626;DHT22;1827;50.534;8.316;2023-02-03T11:04:05;7.70;21.60
3626;DHT22;1827;50.534;8.316;2023-02-03T11:06:32;7.70;55.60
3626;DHT22;1827;50.534;8.316;2023-02-03T11:08:58;7.70;91.90
3626;DHT22;1827;50.534;8.316;2023-02-03T11:11:28;7.70;99.90
3626;DHT22;1827;50.534;8.316;2023-02-03T11:16:39;7.70;99.90
3626;DHT22;1827;50.534;8.316;2023-02-03T11:19:38;7.70;99.90
3626;DHT22;1827;50.534;8.316;2023-02-03T11:22:10;7.70;99.90
3626;DHT22;1827;50.534;8.316;2023-02-03T11:24:40;7.80;99.90
3626;DHT22;1827;50.534;8.316;2023-02-03T11:27:35;7.70;99.90
3626;DHT22;1827;50.534;8.316;2023-02-03T11:30:21;7.80;99.90
3626;DHT22;1827;50.534;8.316;2023-02-03T11:33:20;7.80;99.90
3626;DHT22;1827;50.534;8.316;2023-02-03T11:36:24;7.80;99.90
3626;DHT22;1827;50.534;8.316;2023-02-03T11:39:32;7.70;99.90
3626;DHT22;1827;50.534;8.316;2023-02-03T11:42:08;7.70;99.90
3626;DHT22;1827;50.534;8.316;2023-02-03T11:48:28;7.70;99.90
3626;DHT22;1827;50.534;8.316;2023-02-03T11:52:15;7.70;1.00
3626;DHT22;1827;50.534;8.316;2023-02-03T12:03:22;7.70;1.00
3626;DHT22;1827;50.534;8.316;2023-02-03T12:11:59;7.80;1.00
3626;DHT22;1827;50.534;8.316;2023-02-03T12:14:37;7.70;1.00
3626;DHT22;1827;50.534;8.316;2023-02-03T12:20:27;7.80;1.00
3626;DHT22;1827;50.534;8.316;2023-02-03T12:23:15;7.80;1.00
3626;DHT22;1827;50.534;8.316;2023-02-03T12:26:21;7.80;1.00
3626;DHT22;1827;50.534;8.316;2023-02-03T12:28:49;7.90;1.00
3626;DHT22;1827;50.534;8.316;2023-02-03T12:36:51;8.00;1.00
3626;DHT22;1827;50.534;8.316;2023-02-03T12:39:32;8.00;1.00
3626;DHT22;1827;50.534;8.316;2023-02-03T12:45:31;8.00;1.00
3626;DHT22;1827;50.534;8.316;2023-02-03T12:50:48;8.00;1.00
3626;DHT22;1827;50.534;8.316;2023-02-03T12:53:28;8.10;1.00
3626;DHT22;1827;50.534;8.316;2023-02-03T12:56:08;8.10;1.00
3626;DHT22;1827;50.534;8.316;2023-02-03T12:58:44;8.10;1.00
3626;DHT22;1827;50.534;8.316;2023-02-03T13:01:16;8.10;1.00
3626;DHT22;1827;50.534;8.316;2023-02-03T13:03:54;8.10;1.00
3626;DHT22;1827;50.534;8.316;2023-02-03T13:06:39;8.10;1.00
3626;DHT22;1827;50.534;8.316;2023-02-03T13:09:30;8.20;1.00
3626;DHT22;1827;50.534;8.316;2023-02-03T13:17:52;8.30;99.90
3626;DHT22;1827;50.534;8.316;2023-02-03T13:20:22;8.30;99.90
3626;DHT22;1827;50.534;8.316;2023-02-03T13:22:49;8.40;99.90
3626;DHT22;1827;50.534;8.316;2023-02-03T13:25:46;8.40;99.90
3626;DHT22;1827;50.534;8.316;2023-02-03T13:34:20;8.40;99.90
3626;DHT22;1827;50.534;8.316;2023-02-03T13:37:19;8.40;99.90
3626;DHT22;1827;50.534;8.316;2023-02-03T13:45:28;8.40;99.90
3626;DHT22;1827;50.534;8.316;2023-02-03T13:51:15;8.40;99.90
3626;DHT22;1827;50.534;8.316;2023-02-03T13:53:43;8.50;99.90
3626;DHT22;1827;50.534;8.316;2023-02-03T14:01:39;8.50;99.90
3626;DHT22;1827;50.534;8.316;2023-02-03T14:09:33;8.50;99.90
3626;DHT22;1827;50.534;8.316;2023-02-03T14:20:36;8.50;99.90
3626;DHT22;1827;50.534;8.316;2023-02-03T14:23:17;8.50;99.90
3626;DHT22;1827;50.534;8.316;2023-02-03T14:25:45;8.50;99.90
3626;DHT22;1827;50.534;8.316;2023-02-03T14:28:18;8.50;99.90
3626;DHT22;1827;50.534;8.316;2023-02-03T14:33:52;8.50;99.90
3626;DHT22;1827;50.534;8.316;2023-02-03T14:36:51;8.50;99.90
3626;DHT22;1827;50.534;8.316;2023-02-03T14:42:41;8.60;99.90
3626;DHT22;1827;50.534;8.316;2023-02-03T14:45:20;8.70;99.90
3626;DHT22;1827;50.534;8.316;2023-02-03T14:50:43;8.60;99.90
3626;DHT22;1827;50.534;8.316;2023-02-03T14:53:19;8.60;99.90
3626;DHT22;1827;50.534;8.316;2023-02-03T14:56:10;8.60;99.90
3626;DHT22;1827;50.534;8.316;2023-02-03T14:58:52;8.70;99.90
3626;DHT22;1827;50.534;8.316;2023-02-03T15:02:06;8.70;99.90
3626;DHT22;1827;50.534;8.316;2023-02-03T15:06:41;8.60;99.90
3626;DHT22;1827;50.534;8.316;2023-02-03T15:11:47;8.60;99.90
3626;DHT22;1827;50.534;8.316;2023-02-03T15:14:19;8.60;99.90
3626;DHT22;1827;50.534;8.316;2023-02-03T15:16:52;8.60;99.90
3626;DHT22;1827;50.534;8.316;2023-02-03T15:19:22;8.60;99.90
3626;DHT22;1827;50.534;8.316;2023-02-03T15:21:48;8.60;99.90
3626;DHT22;1827;50.534;8.316;2023-02-03T15:24:17;8.70;99.90
3626;DHT22;1827;50.534;8.316;2023-02-03T15:26:54;8.70;99.90
3626;DHT22;1827;50.534;8.316;2023-02-03T15:29:31;8.70;99.90
3626;DHT22;1827;50.534;8.316;2023-02-03T15:32:08;8.60;99.90
3626;DHT22;1827;50.534;8.316;2023-02-03T15:34:42;8.50;99.90
3626;DHT22;1827;50.534;8.316;2023-02-03T15:37:59;8.50;99.90
3626;DHT22;1827;50.534;8.316;2023-02-03T15:40:13;8.50;99.90
3626;DHT22;1827;50.534;8.316;2023-02-03T15:45:21;8.50;99.90
3626;DHT22;1827;50.534;8.316;2023-02-03T15:48:00;8.50;99.90
3626;DHT22;1827;50.534;8.316;2023-02-03T15:50:45;8.50;99.90
3626;DHT22;1827;50.534;8.316;2023-02-03T15:53:26;8.60;99.90
3626;DHT22;1827;50.534;8.316;2023-02-03T15:55:56;8.60;99.90
3626;DHT22;1827;50.534;8.316;2023-02-03T15:58:25;8.60;99.90
3626;DHT22;1827;50.534;8.316;2023-02-03T16:00:56;8.60;99.90
3626;DHT22;1827;50.534;8.316;2023-02-03T16:03:49;8.60;98.00
3626;DHT22;1827;50.534;8.316;2023-02-03T16:06:30;8.70;53.20
3626;DHT22;1827;50.534;8.316;2023-02-03T16:09:01;8.70;17.10
3626;DHT22;1827;50.534;8.316;2023-02-03T16:11:31;8.80;1.00
3626;DHT22;1827;50.534;8.316;2023-02-03T16:14:02;8.80;1.00
3626;DHT22;1827;50.534;8.316;2023-02-03T16:19:12;8.70;1.00
3626;DHT22;1827;50.534;8.316;2023-02-03T16:29:44;8.70;1.00
3626;DHT22;1827;50.534;8.316;2023-02-03T16:32:29;8.70;1.00
3626;DHT22;1827;50.534;8.316;2023-02-03T16:35:13;8.60;1.00
3626;DHT22;1827;50.534;8.316;2023-02-03T16:38:28;8.70;1.00
3626;DHT22;1827;50.534;8.316;2023-02-03T16:41:16;8.60;19.70
3626;DHT22;1827;50.534;8.316;2023-02-03T16:44:03;8.60;55.40
3626;DHT22;1827;50.534;8.316;2023-02-03T16:46:48;8.50;94.10
3626;DHT22;1827;50.534;8.316;2023-02-03T16:49:32;8.50;99.90
3626;DHT22;1827;50.534;8.316;2023-02-03T16:52:19;8.30;99.90
3626;DHT22;1827;50.534;8.316;2023-02-03T16:54:49;8.30;99.90
3626;DHT22;1827;50.534;8.316;2023-02-03T16:57:18;8.20;99.90
3626;DHT22;1827;50.534;8.316;2023-02-03T16:59:44;8.20;99.90
3626;DHT22;1827;50.534;8.316;2023-02-03T17:02:13;8.20;99.90
3626;DHT22;1827;50.534;8.316;2023-02-03T17:04:41;8.20;99.90
3626;DHT22;1827;50.534;8.316;2023-02-03T17:07:09;8.10;99.90
3626;DHT22;1827;50.534;8.316;2023-02-03T17:09:35;8.20;63.10
3626;DHT22;1827;50.534;8.316;2023-02-03T17:12:03;8.20;1.00
3626;DHT22;1827;50.534;8.316;2023-02-03T17:14:33;8.20;1.00
3626;DHT22;1827;50.534;8.316;2023-02-03T17:17:01;8.00;1.00
3626;DHT22;1827;50.534;8.316;2023-02-03T17:19:27;8.00;1.00
3626;DHT22;1827;50.534;8.316;2023-02-03T17:21:53;8.00;1.00
3626;DHT22;1827;50.534;8.316;2023-02-03T17:24:20;7.90;1.00
3626;DHT22;1827;50.534;8.316;2023-02-03T17:26:56;7.90;1.00
3626;DHT22;1827;50.534;8.316;2023-02-03T17:29:22;7.90;1.00
3626;DHT22;1827;50.534;8.316;2023-02-03T17:31:49;7.80;1.00
3626;DHT22;1827;50.534;8.316;2023-02-03T17:34:16;7.80;1.00
3626;DHT22;1827;50.534;8.316;2023-02-03T17:36:44;7.70;1.00
3626;DHT22;1827;50.534;8.316;2023-02-03T17:39:11;7.80;1.00
3626;DHT22;1827;50.534;8.316;2023-02-03T17:41:39;7.80;1.00
3626;DHT22;1827;50.534;8.316;2023-02-03T17:44:05;7.70;1.00
3626;DHT22;1827;50.534;8.316;2023-02-03T17:46:32;7.70;1.00
3626;DHT22;1827;50.534;8.316;2023-02-03T17:49:00;7.70;1.00
3626;DHT22;1827;50.534;8.316;2023-02-03T17:51:25;7.70;1.00
3626;DHT22;1827;50.534;8.316;2023-02-03T17:53:55;7.70;1.00
3626;DHT22;1827;50.534;8.316;2023-02-03T17:56:23;7.60;1.00
3626;DHT22;1827;50.534;8.316;2023-02-03T17:58:56;7.60;1.00
3626;DHT22;1827;50.534;8.316;2023-02-03T18:01:27;7.60;1.00
3626;DHT22;1827;50.534;8.316;2023-02-03T18:04:02;7.50;1.00
3626;DHT22;1827;50.534;8.316;2023-02-03T18:06:31;7.50;1.00
3626;DHT22;1827;50.534;8.316;2023-02-03T18:09:03;7.50;1.00
3626;DHT22;1827;50.534;8.316;2023-02-03T18:11:32;7.40;1.00
3626;DHT22;1827;50.534;8.316;2023-02-03T18:13:59;7.40;1.00
3626;DHT22;1827;50.534;8.316;2023-02-03T18:16:29;7.40;1.00
3626;DHT22;1827;50.534;8.316;2023-02-03T18:18:58;7.40;1.00
3626;DHT22;1827;50.534;8.316;2023-02-03T18:21:30;7.40;1.00
3626;DHT22;1827;50.534;8.316;2023-02-03T18:24:03;7.40;1.00
3626;DHT22;1827;50.534;8.316;2023-02-03T18:26:33;7.30;1.00
3626;DHT22;1827;50.534;8.316;2023-02-03T18:29:05;7.30;1.00
3626;DHT22;1827;50.534;8.316;2023-02-03T18:31:31;7.30;1.00
3626;DHT22;1827;50.534;8.316;2023-02-03T18:34:02;7.30;1.00
3626;DHT22;1827;50.534;8.316;2023-02-03T18:36:29;7.20;1.00
3626;DHT22;1827;50.534;8.316;2023-02-03T18:39:00;7.20;1.00
3626;DHT22;1827;50.534;8.316;2023-02-03T18:41:26;7.30;1.00
3626;DHT22;1827;50.534;8.316;2023-02-03T18:43:54;7.30;1.00
3626;DHT22;1827;50.534;8.316;2023-02-03T18:46:29;7.30;1.00
3626;DHT22;1827;50.534;8.316;2023-02-03T18:48:57;7.30;1.00
3626;DHT22;1827;50.534;8.316;2023-02-03T18:51:24;7.30;1.00
3626;DHT22;1827;50.534;8.316;2023-02-03T18:53:50;7.30;1.00
3626;DHT22;1827;50.534;8.316;2023-02-03T18:56:19;7.20;1.00
3626;DHT22;1827;50.534;8.316;2023-02-03T18:58:47;7.30;1.00
3626;DHT22;1827;50.534;8.316;2023-02-03T19:01:26;7.30;1.00
3626;DHT22;1827;50.534;8.316;2023-02-03T19:03:57;7.20;1.00
3626;DHT22;1827;50.534;8.316;2023-02-03T19:06:27;7.20;1.00
3626;DHT22;1827;50.534;8.316;2023-02-03T19:08:55;7.30;1.00
3626;DHT22;1827;50.534;8.316;2023-02-03T19:11:22;7.30;1.00
3626;DHT22;1827;50.534;8.316;2023-02-03T19:13:47;7.30;1.00
3626;DHT22;1827;50.534;8.316;2023-02-03T19:16:16;7.30;1.00
3626;DHT22;1827;50.534;8.316;2023-02-03T19:18:45;7.30;1.00
3626;DHT22;1827;50.534;8.316;2023-02-03T19:21:11;7.40;1.00
3626;DHT22;1827;50.534;8.316;2023-02-03T19:23:38;7.30;1.00
3626;DHT22;1827;50.534;8.316;2023-02-03T19:26:09;7.30;1.00
3626;DHT22;1827;50.534;8.316;2023-02-03T19:28:39;7.30;1.00